createdAt,value
2022-08-30T00:02:18.253Z,3.03
2022-08-30T00:04:44.809Z,3.33
2022-08-30T00:07:11.357Z,3.08
2022-08-30T00:09:37.873Z,2.75
2022-08-30T00:12:04.633Z,2.90
2022-08-30T00:14:31.143Z,2.80
2022-08-30T00:16:57.687Z,2.72
2022-08-30T00:19:24.186Z,1.87
2022-08-30T00:21:50.727Z,2.37
2022-08-30T00:24:17.252Z,1.90
2022-08-30T00:26:43.793Z,1.80
2022-08-30T00:29:10.321Z,2.30
2022-08-30T00:31:36.855Z,2.58
2022-08-30T00:34:04.449Z,2.85
2022-08-30T00:36:31.000Z,2.55
2022-08-30T00:38:57.548Z,2.80
2022-08-30T00:41:24.065Z,2.95
2022-08-30T00:43:51.569Z,3.20
2022-08-30T00:46:18.460Z,2.70
2022-08-30T00:48:50.048Z,2.33
2022-08-30T00:51:18.912Z,2.05
2022-08-30T00:53:56.219Z,2.05
2022-08-30T00:56:25.514Z,2.03
2022-08-30T00:58:58.336Z,2.67
2022-08-30T01:01:26.773Z,2.80
2022-08-30T01:03:54.582Z,2.75
2022-08-30T01:06:21.606Z,2.97
2022-08-30T01:08:48.262Z,2.72
2022-08-30T01:11:19.703Z,2.65
2022-08-30T01:13:48.588Z,2.72
2022-08-30T01:16:15.653Z,2.35
2022-08-30T01:18:43.118Z,2.37
2022-08-30T01:23:42.686Z,1.80
2022-08-30T01:26:11.801Z,2.00
2022-08-30T01:28:40.778Z,2.35
2022-08-30T01:31:07.856Z,1.90
2022-08-30T01:33:37.622Z,2.42
2022-08-30T01:36:10.620Z,2.22
2022-08-30T01:39:02.691Z,2.08
2022-08-30T01:41:34.075Z,2.30
2022-08-30T01:44:08.145Z,2.42
2022-08-30T01:46:40.947Z,2.50
2022-08-30T01:49:17.276Z,2.40
2022-08-30T01:51:45.828Z,2.42
2022-08-30T01:54:13.008Z,2.20
2022-08-30T01:56:39.922Z,2.10
2022-08-30T01:59:06.627Z,2.05
2022-08-30T02:01:36.558Z,2.37
2022-08-30T02:04:05.332Z,2.30
2022-08-30T02:06:32.093Z,2.03
2022-08-30T02:08:58.870Z,2.70
2022-08-30T02:11:26.021Z,2.70
2022-08-30T02:13:52.767Z,2.87
2022-08-30T02:16:22.601Z,3.10
2022-08-30T02:18:51.390Z,2.28
2022-08-30T02:21:17.946Z,2.22
2022-08-30T02:23:45.097Z,2.30
2022-08-30T02:26:13.185Z,2.10
2022-08-30T02:28:42.746Z,2.12
2022-08-30T02:31:20.432Z,2.20
2022-08-30T02:33:50.611Z,2.53
2022-08-30T02:36:18.462Z,2.40
2022-08-30T02:38:45.542Z,2.25
2022-08-30T02:41:12.442Z,2.28
2022-08-30T02:43:38.967Z,2.60
2022-08-30T02:46:05.922Z,3.03
2022-08-30T02:48:33.381Z,2.90
2022-08-30T02:51:11.832Z,2.83
2022-08-30T02:53:40.342Z,2.72
2022-08-30T02:56:07.969Z,2.47
2022-08-30T02:58:34.804Z,2.70
2022-08-30T03:01:01.441Z,2.78
2022-08-30T03:03:28.266Z,3.58
2022-08-30T03:05:54.897Z,3.10
2022-08-30T03:08:22.141Z,3.10
2022-08-30T03:10:49.328Z,2.58
2022-08-30T03:13:16.151Z,2.62
2022-08-30T03:15:42.819Z,2.53
2022-08-30T03:18:10.214Z,2.83
2022-08-30T03:20:36.783Z,2.30
2022-08-30T03:23:04.069Z,3.10
2022-08-30T03:25:30.578Z,3.90
2022-08-30T03:27:57.111Z,2.97
2022-08-30T03:30:23.744Z,2.20
2022-08-30T03:32:50.821Z,1.90
2022-08-30T03:35:19.145Z,1.83
2022-08-30T03:37:46.145Z,2.67
2022-08-30T03:40:16.453Z,2.55
2022-08-30T03:42:46.201Z,2.10
2022-08-30T03:45:15.560Z,2.85
2022-08-30T03:47:43.435Z,2.58
2022-08-30T03:50:12.524Z,2.75
2022-08-30T03:52:39.135Z,2.55
2022-08-30T03:55:06.687Z,2.45
2022-08-30T03:57:33.183Z,2.78
2022-08-30T04:00:06.354Z,2.80
2022-08-30T04:02:32.913Z,4.57
2022-08-30T04:04:59.495Z,3.08
2022-08-30T04:07:26.030Z,2.85
2022-08-30T04:09:52.534Z,2.50
2022-08-30T04:12:22.628Z,2.50
2022-08-30T04:14:49.495Z,2.28
2022-08-30T04:17:16.009Z,2.60
2022-08-30T04:19:42.519Z,3.67
2022-08-30T04:22:09.171Z,2.60
2022-08-30T04:24:37.558Z,2.70
2022-08-30T04:27:04.910Z,3.12
2022-08-30T04:29:32.348Z,2.80
2022-08-30T04:31:58.919Z,2.00
2022-08-30T04:34:25.619Z,2.00
2022-08-30T04:36:52.208Z,2.20
2022-08-30T04:39:18.859Z,2.30
2022-08-30T04:41:45.431Z,2.58
2022-08-30T04:44:14.228Z,2.50
2022-08-30T04:46:45.791Z,2.05
2022-08-30T04:49:12.569Z,1.83
2022-08-30T04:51:39.114Z,2.28
2022-08-30T04:54:06.016Z,2.10
2022-08-30T04:56:32.909Z,2.55
2022-08-30T04:58:59.451Z,2.60
2022-08-30T05:01:30.605Z,2.15
2022-08-30T05:03:58.629Z,2.17
2022-08-30T05:06:27.947Z,2.45
2022-08-30T05:08:55.304Z,2.30
2022-08-30T05:11:22.753Z,2.50
2022-08-30T05:13:49.535Z,2.60
2022-08-30T05:16:17.016Z,2.60
2022-08-30T05:18:49.608Z,2.60
2022-08-30T05:21:28.363Z,2.80
2022-08-30T05:23:57.927Z,2.50
2022-08-30T05:26:33.339Z,2.37
2022-08-30T05:29:00.710Z,2.65
2022-08-30T05:31:34.361Z,2.60
2022-08-30T05:34:01.596Z,2.62
2022-08-30T05:36:30.847Z,2.72
2022-08-30T05:38:57.963Z,2.28
2022-08-30T05:41:26.720Z,2.50
2022-08-30T05:44:00.673Z,2.50
2022-08-30T05:49:04.294Z,2.40
2022-08-30T05:51:36.970Z,2.65
2022-08-30T05:54:12.754Z,3.08
2022-08-30T05:56:41.525Z,4.05
2022-08-30T05:59:09.154Z,4.47
2022-08-30T06:01:45.703Z,4.22
2022-08-30T06:04:13.233Z,3.15
2022-08-30T06:06:42.873Z,2.90
2022-08-30T06:09:11.605Z,2.90
2022-08-30T06:11:38.312Z,2.90
2022-08-30T06:14:05.845Z,3.08
2022-08-30T06:16:32.983Z,2.95
2022-08-30T06:19:00.240Z,3.08
2022-08-30T06:21:33.780Z,3.03
2022-08-30T06:24:02.393Z,3.15
2022-08-30T06:26:29.580Z,3.30
2022-08-30T06:28:58.057Z,3.35
2022-08-30T06:31:25.886Z,3.55
2022-08-30T06:33:52.534Z,3.72
2022-08-30T06:36:23.555Z,3.55
2022-08-30T06:38:53.267Z,3.60
2022-08-30T06:41:24.168Z,3.47
2022-08-30T06:43:51.413Z,3.60
2022-08-30T06:46:22.601Z,3.70
2022-08-30T06:48:50.276Z,3.95
2022-08-30T06:51:36.959Z,4.30
2022-08-30T06:54:06.482Z,3.92
2022-08-30T06:56:40.159Z,4.28
2022-08-30T06:59:09.232Z,3.80
2022-08-30T07:01:35.784Z,3.62
2022-08-30T07:04:02.741Z,3.60
2022-08-30T07:06:30.121Z,4.07
2022-08-30T07:08:56.900Z,3.55
2022-08-30T07:11:36.804Z,3.87
2022-08-30T07:14:05.013Z,4.05
2022-08-30T07:16:32.565Z,4.35
2022-08-30T07:19:01.119Z,4.07
2022-08-30T07:21:43.000Z,4.10
2022-08-30T07:24:10.725Z,4.30
2022-08-30T07:26:42.651Z,4.37
2022-08-30T07:29:09.796Z,4.75
2022-08-30T07:31:36.905Z,4.57
2022-08-30T07:34:05.608Z,4.65
2022-08-30T07:36:33.040Z,3.80
2022-08-30T07:38:59.890Z,3.80
2022-08-30T07:41:34.839Z,4.50
2022-08-30T07:44:02.309Z,4.12
2022-08-30T07:46:29.275Z,4.87
2022-08-30T07:48:55.918Z,4.90
2022-08-30T07:51:25.992Z,4.80
2022-08-30T07:53:53.767Z,4.50
2022-08-30T07:56:21.639Z,4.70
2022-08-30T07:58:49.100Z,5.05
2022-08-30T08:01:17.339Z,4.55
2022-08-30T08:03:44.663Z,4.85
2022-08-30T08:06:15.304Z,4.35
2022-08-30T08:08:44.646Z,4.68
2022-08-30T08:11:18.884Z,4.22
2022-08-30T08:13:53.403Z,4.55
2022-08-30T08:16:24.683Z,4.30
2022-08-30T08:18:52.525Z,4.40
2022-08-30T08:21:20.463Z,4.35
2022-08-30T08:23:47.038Z,4.60
2022-08-30T08:26:13.816Z,4.70
2022-08-30T08:28:42.101Z,4.50
2022-08-30T08:31:27.094Z,4.72
2022-08-30T08:33:57.986Z,5.22
2022-08-30T08:36:24.587Z,4.68
2022-08-30T08:38:51.371Z,5.37
2022-08-30T08:43:11.822Z,5.10
2022-08-30T08:46:35.664Z,4.75
2022-08-30T08:49:06.601Z,4.30
2022-08-30T08:51:56.417Z,4.15
2022-08-30T08:55:12.941Z,4.55
2022-08-30T08:57:40.805Z,4.57
2022-08-30T09:00:11.989Z,4.75
2022-08-30T09:03:00.746Z,4.68
2022-08-30T09:05:36.041Z,5.18
2022-08-30T09:08:10.291Z,4.75
2022-08-30T09:10:54.674Z,4.30
2022-08-30T09:13:22.854Z,4.20
2022-08-30T09:15:55.091Z,3.85
2022-08-30T09:18:49.066Z,4.15
2022-08-30T09:21:27.270Z,3.70
2022-08-30T09:24:04.091Z,4.03
2022-08-30T09:26:39.701Z,4.20
2022-08-30T09:29:17.936Z,4.35
2022-08-30T09:32:10.181Z,4.87
2022-08-30T09:34:43.736Z,4.78
2022-08-30T09:37:40.004Z,4.40
2022-08-30T09:40:16.694Z,4.35
2022-08-30T09:43:09.173Z,4.50
2022-08-30T09:45:42.201Z,5.10
2022-08-30T09:50:35.658Z,4.93
2022-08-30T09:53:24.578Z,4.60
2022-08-30T09:56:52.644Z,4.50
2022-08-30T10:01:08.634Z,5.12
2022-08-30T10:07:48.930Z,5.30
2022-08-30T10:14:37.131Z,4.68
2022-08-30T10:20:37.178Z,4.90
2022-08-30T10:23:22.172Z,4.65
2022-08-30T10:25:57.050Z,4.78
2022-08-30T10:29:05.980Z,5.10
2022-08-30T10:32:02.275Z,4.82
2022-08-30T10:34:55.640Z,4.10
2022-08-30T10:37:31.028Z,4.65
2022-08-30T10:41:12.274Z,4.80
2022-08-30T10:44:19.575Z,4.45
2022-08-30T10:49:16.619Z,4.57
2022-08-30T10:54:21.452Z,5.00
2022-08-30T10:56:51.140Z,4.68
2022-08-30T10:59:19.889Z,4.22
2022-08-30T11:06:54.025Z,4.47
2022-08-30T11:09:58.858Z,4.30
2022-08-30T11:13:17.152Z,4.62
2022-08-30T11:16:09.924Z,4.62
2022-08-30T11:18:52.188Z,5.50
2022-08-30T11:21:42.661Z,4.78
2022-08-30T11:24:18.910Z,4.70
2022-08-30T11:27:00.088Z,5.22
2022-08-30T11:29:49.653Z,4.65
2022-08-30T11:32:24.881Z,4.68
2022-08-30T11:34:57.846Z,4.72
2022-08-30T11:37:43.396Z,5.03
2022-08-30T11:41:06.173Z,4.80
2022-08-30T11:44:31.540Z,4.90
2022-08-30T11:47:01.989Z,4.43
2022-08-30T11:49:56.308Z,5.07
2022-08-30T11:52:46.086Z,4.50
2022-08-30T11:55:39.171Z,4.80
2022-08-30T11:59:01.193Z,4.87
2022-08-30T12:01:50.350Z,4.80
2022-08-30T12:04:43.989Z,5.20
2022-08-30T12:07:54.365Z,4.65
2022-08-30T12:10:39.846Z,4.60
2022-08-30T12:13:06.898Z,5.25
2022-08-30T12:16:01.181Z,4.18
2022-08-30T12:18:49.798Z,4.10
2022-08-30T12:22:17.175Z,4.28
2022-08-30T12:24:51.079Z,4.50
2022-08-30T12:27:32.835Z,4.35
2022-08-30T12:30:07.594Z,4.10
2022-08-30T12:32:43.696Z,4.62
2022-08-30T12:35:22.597Z,4.40
2022-08-30T12:38:11.532Z,4.32
2022-08-30T12:40:49.300Z,4.45
2022-08-30T12:43:33.171Z,4.30
2022-08-30T12:46:12.904Z,4.50
2022-08-30T12:48:44.268Z,4.28
2022-08-30T12:51:36.421Z,4.57
2022-08-30T12:54:27.172Z,4.20
2022-08-30T12:57:32.086Z,4.35
2022-08-30T13:00:01.989Z,4.15
2022-08-30T13:02:53.191Z,4.40
2022-08-30T13:07:11.529Z,4.22
2022-08-30T13:09:42.231Z,4.68
2022-08-30T13:12:24.188Z,4.00
2022-08-30T13:15:07.909Z,4.57
2022-08-30T13:17:34.445Z,4.20
2022-08-30T13:20:24.294Z,4.47
2022-08-30T13:23:08.938Z,4.20
2022-08-30T13:25:38.865Z,4.10
2022-08-30T13:28:06.971Z,4.30
2022-08-30T13:30:37.102Z,4.18
2022-08-30T13:33:03.868Z,3.75
2022-08-30T13:35:31.597Z,4.05
2022-08-30T13:38:01.146Z,4.35
2022-08-30T13:40:27.740Z,4.18
2022-08-30T13:42:54.317Z,4.55
2022-08-30T13:48:17.841Z,4.30
2022-08-30T13:50:52.874Z,4.18
2022-08-30T13:53:51.795Z,4.18
2022-08-30T13:56:19.275Z,4.07
2022-08-30T13:58:47.945Z,4.07
2022-08-30T14:01:14.506Z,4.35
2022-08-30T14:04:13.322Z,4.25
2022-08-30T14:07:11.987Z,4.18
2022-08-30T14:09:40.756Z,4.07
2022-08-30T14:12:08.429Z,4.30
2022-08-30T14:14:42.755Z,4.45
2022-08-30T14:17:09.920Z,3.75
2022-08-30T14:19:36.484Z,4.05
2022-08-30T14:22:03.287Z,3.95
2022-08-30T14:24:29.809Z,3.97
2022-08-30T14:26:56.337Z,4.30
2022-08-30T14:29:28.957Z,4.47
2022-08-30T14:31:56.458Z,4.22
2022-08-30T14:34:25.594Z,4.07
2022-08-30T14:36:52.151Z,3.90
2022-08-30T14:39:20.757Z,4.60
2022-08-30T14:41:52.663Z,4.35
2022-08-30T14:44:22.584Z,4.30
2022-08-30T14:46:51.021Z,4.45
2022-08-30T14:49:18.699Z,4.22
2022-08-30T14:51:47.699Z,4.18
2022-08-30T14:54:17.695Z,4.32
2022-08-30T14:56:44.389Z,4.43
2022-08-30T14:59:12.168Z,4.43
2022-08-30T15:01:41.253Z,4.00
2022-08-30T15:04:09.825Z,4.35
2022-08-30T15:06:39.219Z,4.50
2022-08-30T15:09:10.539Z,4.10
2022-08-30T15:11:38.127Z,4.25
2022-08-30T15:14:06.118Z,4.32
2022-08-30T15:16:37.358Z,4.18
2022-08-30T15:19:07.139Z,4.50
2022-08-30T15:21:43.097Z,4.70
2022-08-30T15:24:15.209Z,4.25
2022-08-30T15:26:43.388Z,4.20
2022-08-30T15:29:13.231Z,4.35
2022-08-30T15:31:40.327Z,4.37
2022-08-30T15:34:16.080Z,4.60
2022-08-30T15:36:44.697Z,4.87
2022-08-30T15:39:13.175Z,4.10
2022-08-30T15:41:44.297Z,4.62
2022-08-30T15:44:11.960Z,4.37
2022-08-30T15:46:43.950Z,4.55
2022-08-30T15:49:15.444Z,4.07
2022-08-30T15:51:46.072Z,4.40
2022-08-30T15:54:17.551Z,4.40
2022-08-30T15:56:45.398Z,4.22
2022-08-30T15:59:14.561Z,4.35
2022-08-30T16:01:43.527Z,4.28
2022-08-30T16:04:11.416Z,4.75
2022-08-30T16:06:39.067Z,4.40
2022-08-30T16:09:07.465Z,4.72
2022-08-30T16:11:35.096Z,4.45
2022-08-30T16:14:02.928Z,4.07
2022-08-30T16:16:30.406Z,4.82
2022-08-30T16:18:57.163Z,4.20
2022-08-30T16:21:30.315Z,4.18
2022-08-30T16:24:00.874Z,4.55
2022-08-30T16:26:33.053Z,4.30
2022-08-30T16:29:00.106Z,4.45
2022-08-30T16:31:29.784Z,4.05
2022-08-30T16:34:02.832Z,4.70
2022-08-30T16:36:32.528Z,4.15
2022-08-30T16:38:59.681Z,4.80
2022-08-30T16:41:27.213Z,4.85
2022-08-30T16:43:54.969Z,4.45
2022-08-30T16:46:27.741Z,4.43
2022-08-30T16:48:58.223Z,4.57
2022-08-30T16:51:28.864Z,4.35
2022-08-30T16:53:58.974Z,4.70
2022-08-30T16:56:29.693Z,4.55
2022-08-30T16:59:02.034Z,5.07
2022-08-30T17:01:32.509Z,4.55
2022-08-30T17:04:02.937Z,4.68
2022-08-30T17:06:29.519Z,4.70
2022-08-30T17:08:57.042Z,4.30
2022-08-30T17:11:24.765Z,5.00
2022-08-30T17:13:52.341Z,4.60
2022-08-30T17:16:22.432Z,5.20
2022-08-30T17:19:00.811Z,4.50
2022-08-30T17:21:29.489Z,4.57
2022-08-30T17:24:02.347Z,4.60
2022-08-30T17:26:35.441Z,4.40
2022-08-30T17:29:03.348Z,4.97
2022-08-30T17:31:30.042Z,4.78
2022-08-30T17:34:03.631Z,4.75
2022-08-30T17:36:35.419Z,4.65
2022-08-30T17:39:11.129Z,4.45
2022-08-30T17:41:50.292Z,4.85
2022-08-30T17:44:23.255Z,5.50
2022-08-30T17:46:52.710Z,4.72
2022-08-30T17:49:19.316Z,4.93
2022-08-30T17:51:47.841Z,4.90
2022-08-30T17:54:14.796Z,4.72
2022-08-30T17:56:42.371Z,4.78
2022-08-30T17:59:13.650Z,5.45
2022-08-30T18:01:42.212Z,4.72
2022-08-30T18:04:10.248Z,4.85
2022-08-30T18:06:36.801Z,5.47
2022-08-30T18:09:07.554Z,5.90
2022-08-30T18:11:38.818Z,5.45
2022-08-30T18:14:06.247Z,4.87
2022-08-30T18:16:36.601Z,5.40
2022-08-30T18:19:04.961Z,5.03
2022-08-30T18:21:37.224Z,5.07
2022-08-30T18:24:05.565Z,5.70
2022-08-30T18:26:32.073Z,5.18
2022-08-30T18:28:59.294Z,5.57
2022-08-30T18:31:27.046Z,5.50
2022-08-30T18:33:56.636Z,5.00
2022-08-30T18:36:28.937Z,5.28
2022-08-30T18:38:55.864Z,5.60
2022-08-30T18:41:22.424Z,5.47
2022-08-30T18:43:48.941Z,5.35
2022-08-30T18:46:17.990Z,5.40
2022-08-30T18:48:46.121Z,5.22
2022-08-30T18:51:20.492Z,5.53
2022-08-30T18:53:48.920Z,5.32
2022-08-30T18:56:16.480Z,5.45
2022-08-30T18:58:45.219Z,5.45
2022-08-30T19:05:41.875Z,5.45
2022-08-30T19:08:08.627Z,5.72
2022-08-30T19:10:35.766Z,5.53
2022-08-30T19:13:02.590Z,5.72
2022-08-30T19:15:33.405Z,5.55
2022-08-30T19:18:02.337Z,5.43
2022-08-30T19:20:43.911Z,5.53
2022-08-30T19:23:10.590Z,5.70
2022-08-30T19:25:40.042Z,6.20
2022-08-30T19:28:07.156Z,5.60
2022-08-30T19:30:34.667Z,6.03
2022-08-30T19:33:01.353Z,6.30
2022-08-30T19:35:30.158Z,5.72
2022-08-30T19:37:57.508Z,6.55
2022-08-30T19:40:24.349Z,6.10
2022-08-30T19:42:52.456Z,5.70
2022-08-30T19:45:21.477Z,5.70
2022-08-30T19:47:49.972Z,6.35
2022-08-30T19:50:17.781Z,5.87
2022-08-30T19:52:48.409Z,6.62
2022-08-30T19:55:19.397Z,6.70
2022-08-30T19:57:50.410Z,6.62
2022-08-30T20:00:17.683Z,6.72
2022-08-30T20:02:44.287Z,6.20
2022-08-30T20:05:17.342Z,6.00
2022-08-30T20:07:43.925Z,6.05
2022-08-30T20:10:14.442Z,5.93
2022-08-30T20:12:44.985Z,6.28
2022-08-30T20:15:15.755Z,6.57
2022-08-30T20:18:03.111Z,6.10
2022-08-30T20:20:33.342Z,6.43
2022-08-30T20:23:00.063Z,6.47
2022-08-30T20:24:30.014Z,5.93
2022-08-30T20:25:28.798Z,6.68
2022-08-30T20:27:55.641Z,6.05
2022-08-30T20:30:22.290Z,6.07
2022-08-30T20:32:48.846Z,6.60
2022-08-30T20:35:17.012Z,6.45
2022-08-30T20:37:44.133Z,6.12
2022-08-30T20:40:15.822Z,6.37
2022-08-30T20:42:44.763Z,6.80
2022-08-30T20:45:16.815Z,6.18
2022-08-30T20:47:43.724Z,5.72
2022-08-30T20:50:15.834Z,5.90
2022-08-30T20:52:43.129Z,6.30
2022-08-30T20:55:12.218Z,6.25
2022-08-30T20:57:39.602Z,6.28
2022-08-30T21:00:11.674Z,6.72
2022-08-30T21:02:46.369Z,6.30
2022-08-30T21:05:14.778Z,5.95
2022-08-30T21:07:42.462Z,6.68
2022-08-30T21:10:09.595Z,6.32
2022-08-30T21:12:36.147Z,6.12
2022-08-30T21:15:27.093Z,6.37
2022-08-30T21:18:03.281Z,6.68
2022-08-30T21:20:29.791Z,5.90
2022-08-30T21:22:56.341Z,6.03
2022-08-30T21:25:22.904Z,6.43
2022-08-30T21:27:49.402Z,6.10
2022-08-30T21:30:16.065Z,6.80
2022-08-30T21:32:42.587Z,6.70
2022-08-30T21:35:27.782Z,5.78
2022-08-30T21:37:54.721Z,6.20
2022-08-30T21:40:21.582Z,6.40
2022-08-30T21:42:48.136Z,6.40
2022-08-30T21:45:14.798Z,6.60
2022-08-30T21:47:44.159Z,6.20
2022-08-30T21:50:11.270Z,6.62
2022-08-30T21:52:37.923Z,6.00
2022-08-30T21:55:05.287Z,6.43
2022-08-30T21:57:32.204Z,6.57
2022-08-30T21:59:58.823Z,6.47
2022-08-30T22:02:25.427Z,6.40
2022-08-30T22:04:51.983Z,6.47
2022-08-30T22:07:18.508Z,6.03
2022-08-30T22:09:45.011Z,6.45
2022-08-30T22:12:11.645Z,6.53
2022-08-30T22:14:38.984Z,6.65
2022-08-30T22:17:05.593Z,6.12
2022-08-30T22:19:33.910Z,6.80
2022-08-30T22:22:01.614Z,6.53
2022-08-30T22:24:32.450Z,6.62
2022-08-30T22:27:01.572Z,6.35
2022-08-30T22:29:29.344Z,5.72
2022-08-30T22:31:56.026Z,6.82
2022-08-30T22:34:22.591Z,6.57
2022-08-30T22:36:49.126Z,6.70
2022-08-30T22:39:15.745Z,6.10
2022-08-30T22:41:43.447Z,6.28
2022-08-30T22:44:10.963Z,7.00
2022-08-30T22:46:38.631Z,7.37
2022-08-30T22:49:08.694Z,6.30
2022-08-30T22:51:36.271Z,6.50
2022-08-30T22:54:04.918Z,6.15
2022-08-30T22:56:34.632Z,6.70
2022-08-30T22:59:01.804Z,6.50
2022-08-30T23:01:33.353Z,6.05
2022-08-30T23:04:01.161Z,6.12
2022-08-30T23:06:29.126Z,6.70
2022-08-30T23:08:55.892Z,6.45
2022-08-30T23:11:22.409Z,6.30
2022-08-30T23:13:49.045Z,6.25
2022-08-30T23:16:16.742Z,6.40
2022-08-30T23:18:45.532Z,6.18
2022-08-30T23:21:22.469Z,6.30
2022-08-30T23:24:10.397Z,6.70
2022-08-30T23:26:56.292Z,5.43
2022-08-30T23:29:41.699Z,5.80
2022-08-30T23:32:26.618Z,5.68
2022-08-30T23:35:11.663Z,5.53
2022-08-30T23:37:56.623Z,6.47
2022-08-30T23:40:41.638Z,5.10
2022-08-30T23:43:28.066Z,5.40
2022-08-30T23:46:16.991Z,5.68
2022-08-30T23:49:05.617Z,6.62
2022-08-30T23:51:50.577Z,6.32
2022-08-30T23:54:35.479Z,6.00
2022-08-30T23:57:20.437Z,5.75
